createdAt,value
2024-05-09T00:01:29.940Z,7.77
2024-05-09T00:05:32.075Z,8.60
2024-05-09T00:09:34.046Z,9.48
2024-05-09T00:13:35.720Z,7.80
2024-05-09T00:17:37.711Z,8.18
2024-05-09T00:21:45.236Z,7.05
2024-05-09T00:25:47.161Z,8.23
2024-05-09T00:29:49.125Z,7.73
2024-05-09T00:33:51.177Z,8.80
2024-05-09T00:37:53.264Z,8.23
2024-05-09T00:41:55.048Z,10.05
2024-05-09T00:45:57.660Z,9.10
2024-05-09T00:54:02.408Z,8.55
2024-05-09T00:58:05.858Z,8.65
2024-05-09T01:02:08.014Z,8.45
2024-05-09T01:06:09.791Z,9.82
2024-05-09T01:10:17.249Z,11.60
2024-05-09T01:14:23.209Z,9.43
2024-05-09T01:18:25.689Z,8.82
2024-05-09T01:22:29.530Z,11.15
2024-05-09T01:26:31.269Z,6.85
2024-05-09T01:30:35.947Z,8.40
2024-05-09T01:34:39.317Z,7.78
2024-05-09T01:38:41.188Z,7.43
2024-05-09T01:42:42.978Z,10.13
2024-05-09T01:50:54.520Z,10.30
2024-05-09T01:54:56.542Z,14.63
2024-05-09T01:58:58.586Z,12.17
2024-05-09T02:03:00.906Z,8.88
2024-05-09T02:07:02.966Z,7.07
2024-05-09T02:11:05.082Z,15.07
2024-05-09T02:15:07.078Z,9.35
2024-05-09T02:19:09.104Z,11.40
2024-05-09T02:23:11.547Z,11.25
2024-05-09T02:27:13.831Z,10.40
2024-05-09T02:31:15.753Z,11.00
2024-05-09T02:35:19.146Z,12.27
2024-05-09T02:39:24.233Z,10.30
2024-05-09T02:43:26.292Z,8.75
2024-05-09T02:51:44.899Z,9.25
2024-05-09T02:55:46.672Z,9.60
2024-05-09T02:59:48.617Z,7.32
2024-05-09T03:03:51.796Z,12.03
2024-05-09T03:07:53.789Z,9.90
2024-05-09T03:11:55.626Z,11.40
2024-05-09T03:16:00.163Z,10.37
2024-05-09T03:20:05.160Z,9.00
2024-05-09T03:24:07.882Z,7.35
2024-05-09T03:28:09.979Z,9.63
2024-05-09T03:32:11.882Z,8.00
2024-05-09T03:36:13.971Z,5.88
2024-05-09T03:40:20.900Z,5.90
2024-05-09T03:44:26.084Z,8.07
2024-05-09T03:48:28.613Z,6.35
2024-05-09T03:52:30.356Z,8.45
2024-05-09T03:56:32.374Z,8.02
2024-05-09T04:00:38.531Z,6.60
2024-05-09T04:04:42.472Z,12.50
2024-05-09T04:08:44.457Z,10.07
2024-05-09T04:12:46.170Z,10.98
2024-05-09T04:16:48.112Z,7.20
2024-05-09T04:20:50.090Z,8.57
2024-05-09T04:24:53.043Z,11.43
2024-05-09T04:28:54.926Z,13.52
2024-05-09T04:32:56.722Z,7.23
2024-05-09T04:36:58.561Z,9.30
2024-05-09T04:41:00.450Z,7.90
2024-05-09T04:45:02.292Z,6.00
2024-05-09T04:49:04.143Z,11.63
2024-05-09T04:53:10.668Z,15.40
2024-05-09T04:57:13.294Z,9.07
2024-05-09T05:01:16.376Z,9.27
2024-05-09T05:05:18.386Z,6.78
2024-05-09T05:09:20.097Z,8.10
2024-05-09T05:13:24.163Z,8.07
2024-05-09T05:17:26.703Z,8.45
2024-05-09T05:21:28.750Z,8.15
2024-05-09T05:25:30.599Z,6.47
2024-05-09T05:29:32.651Z,9.33
2024-05-09T05:33:34.523Z,6.22
2024-05-09T05:37:36.526Z,6.53
2024-05-09T05:41:38.458Z,7.80
2024-05-09T05:45:40.238Z,7.80
2024-05-09T05:49:42.124Z,7.60
2024-05-09T05:53:44.983Z,7.87
2024-05-09T05:57:47.021Z,8.50
2024-05-09T06:01:48.906Z,8.50
2024-05-09T06:05:50.730Z,11.10
2024-05-09T06:09:52.656Z,24.33
2024-05-09T06:13:54.500Z,8.63
2024-05-09T06:17:56.526Z,11.80
2024-05-09T06:22:02.004Z,6.78
2024-05-09T06:26:04.816Z,9.23
2024-05-09T06:30:09.953Z,18.27
2024-05-09T06:34:14.300Z,8.63
2024-05-09T06:38:16.170Z,13.80
2024-05-09T06:42:18.152Z,7.33
2024-05-09T06:46:19.839Z,9.63
2024-05-09T06:50:24.405Z,10.05
2024-05-09T06:54:30.351Z,9.50
2024-05-09T06:58:32.143Z,6.40
2024-05-09T07:02:34.177Z,9.27
2024-05-09T07:06:35.973Z,8.95
2024-05-09T07:10:38.507Z,9.17
2024-05-09T07:19:44.516Z,8.15
2024-05-09T07:23:47.425Z,8.03
2024-05-09T07:27:49.312Z,7.85
2024-05-09T07:31:51.488Z,7.90
2024-05-09T07:35:53.346Z,8.43
2024-05-09T07:39:55.220Z,7.65
2024-05-09T07:43:57.187Z,8.47
2024-05-09T07:53:27.107Z,7.70
2024-05-09T07:56:26.245Z,10.63
2024-05-09T08:00:31.512Z,7.22
2024-05-09T08:04:34.063Z,7.10
2024-05-09T08:08:36.111Z,7.75
2024-05-09T08:12:38.100Z,6.47
2024-05-09T08:16:43.059Z,9.23
2024-05-09T08:20:48.574Z,8.98
2024-05-09T08:24:50.887Z,11.77
2024-05-09T08:32:54.831Z,6.17
2024-05-09T08:36:59.657Z,6.63
2024-05-09T08:41:04.340Z,6.50
2024-05-09T08:45:06.507Z,10.15
2024-05-09T08:49:08.824Z,5.97
2024-05-09T08:57:13.764Z,5.47
2024-05-09T09:01:17.815Z,5.22
2024-05-09T09:05:24.536Z,3.70
2024-05-09T09:09:27.565Z,7.22
2024-05-09T09:13:29.321Z,5.50
2024-05-09T09:17:31.374Z,4.93
2024-05-09T09:21:33.261Z,4.55
2024-05-09T09:25:35.335Z,4.97
2024-05-09T09:29:39.665Z,3.75
2024-05-09T09:34:28.078Z,7.93
2024-05-09T09:38:31.958Z,8.85
2024-05-09T09:42:37.547Z,4.72
2024-05-09T09:46:40.730Z,5.95
2024-05-09T09:50:43.469Z,3.38
2024-05-09T09:54:46.074Z,5.13
2024-05-09T09:58:48.642Z,6.32
2024-05-09T10:02:50.434Z,5.95
2024-05-09T10:06:56.972Z,7.78
2024-05-09T10:10:58.850Z,3.95
2024-05-09T10:15:08.055Z,3.40
2024-05-09T10:19:21.534Z,2.90
2024-05-09T10:23:26.684Z,3.63
2024-05-09T10:27:30.276Z,3.88
2024-05-09T10:31:32.603Z,5.65
2024-05-09T10:35:34.608Z,5.38
2024-05-09T10:39:39.919Z,2.15
2024-05-09T10:43:42.218Z,3.83
2024-05-09T10:47:44.130Z,2.10
2024-05-09T10:51:48.608Z,7.70
2024-05-09T10:56:00.822Z,2.67
2024-05-09T11:00:03.113Z,3.35
2024-05-09T11:04:05.844Z,5.20
2024-05-09T11:08:09.212Z,2.88
2024-05-09T11:12:11.434Z,3.05
2024-05-09T11:20:26.806Z,2.92
2024-05-09T11:24:35.694Z,5.15
2024-05-09T11:28:37.884Z,4.50
2024-05-09T11:32:39.828Z,1.83
2024-05-09T11:36:41.771Z,3.38
2024-05-09T11:40:43.615Z,2.05
2024-05-09T11:44:45.381Z,1.83
2024-05-09T11:48:47.370Z,2.63
2024-05-09T11:52:49.408Z,1.75
2024-05-09T11:56:51.926Z,3.58
2024-05-09T12:00:53.718Z,2.72
2024-05-09T12:04:55.797Z,4.22
2024-05-09T12:08:57.855Z,1.95
2024-05-09T12:12:59.607Z,1.35
2024-05-09T12:17:04.012Z,3.05
2024-05-09T12:21:06.204Z,2.28
2024-05-09T12:25:08.534Z,1.70
2024-05-09T12:29:11.799Z,1.95
2024-05-09T12:33:14.510Z,1.40
2024-05-09T12:37:16.790Z,2.75
2024-05-09T12:45:23.310Z,4.50
2024-05-09T12:49:25.406Z,1.88
2024-05-09T12:57:29.286Z,1.83
2024-05-09T13:01:31.261Z,4.25
2024-05-09T13:05:33.785Z,2.00
2024-05-09T13:09:37.025Z,2.45
2024-05-09T13:13:39.570Z,4.13
2024-05-09T13:17:42.529Z,3.63
2024-05-09T13:21:46.006Z,2.47
2024-05-09T13:40:12.025Z,2.58
2024-05-09T13:44:16.342Z,3.97
2024-05-09T13:48:18.574Z,3.70
2024-05-09T13:56:23.268Z,2.53
2024-05-09T14:09:47.639Z,2.22
2024-05-09T14:13:49.386Z,3.08
2024-05-09T14:17:51.333Z,3.90
2024-05-09T14:21:53.360Z,2.65
2024-05-09T14:25:55.528Z,4.18
2024-05-09T14:29:57.486Z,1.98
2024-05-09T14:33:59.606Z,3.97
2024-05-09T14:38:01.695Z,4.30
2024-05-09T14:42:03.747Z,5.00
2024-05-09T14:46:05.930Z,2.42
2024-05-09T14:55:29.783Z,2.67
2024-05-09T14:59:31.582Z,2.70
2024-05-09T15:04:17.363Z,3.88
2024-05-09T15:08:34.565Z,2.85
2024-05-09T15:12:36.557Z,2.42
2024-05-09T15:16:38.760Z,3.55
2024-05-09T15:21:08.588Z,2.78
2024-05-09T15:25:10.424Z,4.70
2024-05-09T15:29:12.819Z,4.82
2024-05-09T15:37:16.668Z,5.17
2024-05-09T15:41:37.119Z,3.22
2024-05-09T15:45:40.415Z,4.93
2024-05-09T15:49:43.442Z,7.30
2024-05-09T15:53:45.313Z,3.15
2024-05-09T15:57:47.252Z,9.57
2024-05-09T16:06:10.855Z,3.78
2024-05-09T16:10:19.956Z,3.08
2024-05-09T16:18:27.108Z,8.80
2024-05-09T16:22:28.880Z,3.78
2024-05-09T16:26:30.852Z,2.33
2024-05-09T16:30:35.438Z,2.88
2024-05-09T16:34:38.382Z,4.72
2024-05-09T16:38:41.708Z,6.68
2024-05-09T16:42:43.672Z,3.30
2024-05-09T16:46:45.623Z,3.13
2024-05-09T16:50:47.687Z,6.22
2024-05-09T16:54:49.503Z,2.13
2024-05-09T16:58:51.764Z,2.78
2024-05-09T17:02:54.813Z,3.63
2024-05-09T17:06:57.032Z,4.97
2024-05-09T17:10:59.199Z,5.03
2024-05-09T17:15:01.150Z,5.85
2024-05-09T17:19:03.084Z,6.13
2024-05-09T17:23:13.787Z,2.93
2024-05-09T17:27:16.314Z,5.90
2024-05-09T17:31:18.405Z,3.13
2024-05-09T17:40:42.783Z,4.53
2024-05-09T17:44:44.902Z,4.88
2024-05-09T17:48:47.003Z,3.15
2024-05-09T17:52:51.618Z,2.83
2024-05-09T17:56:53.370Z,3.72
2024-05-09T18:00:58.192Z,6.60
2024-05-09T18:05:02.052Z,3.92
2024-05-09T18:09:04.038Z,3.95
2024-05-09T18:13:06.419Z,4.73
2024-05-09T18:17:08.806Z,2.67
2024-05-09T18:21:10.821Z,2.83
2024-05-09T18:25:12.858Z,2.33
2024-05-09T18:29:16.152Z,2.10
2024-05-09T18:33:19.453Z,1.83
2024-05-09T18:37:21.768Z,2.78
2024-05-09T18:41:23.774Z,2.35
2024-05-09T18:45:25.675Z,2.47
2024-05-09T18:49:28.055Z,2.50
2024-05-09T18:53:30.180Z,3.75
2024-05-09T18:57:34.246Z,2.37
2024-05-09T19:01:40.999Z,2.50
2024-05-09T19:05:45.053Z,4.18
2024-05-09T19:09:48.174Z,3.35
2024-05-09T19:13:50.170Z,2.80
2024-05-09T19:17:52.116Z,1.33
2024-05-09T19:21:55.472Z,3.92
2024-05-09T19:25:57.467Z,3.35
2024-05-09T19:30:00.318Z,1.70
2024-05-09T19:34:02.409Z,5.55
2024-05-09T19:38:05.633Z,2.53
2024-05-09T19:42:07.778Z,8.52
2024-05-09T19:46:10.386Z,14.68
2024-05-09T19:50:19.495Z,4.82
2024-05-09T19:54:24.854Z,1.40
2024-05-09T19:58:26.809Z,2.42
2024-05-09T20:02:29.060Z,2.13
2024-05-09T20:06:31.296Z,2.55
2024-05-09T20:10:35.449Z,3.17
2024-05-09T20:14:41.207Z,1.90
2024-05-09T20:18:43.240Z,5.00
2024-05-09T20:22:45.359Z,2.90
2024-05-09T20:26:47.300Z,3.47
2024-05-09T20:30:49.183Z,2.43
2024-05-09T20:34:52.465Z,3.73
2024-05-09T20:38:54.298Z,1.90
2024-05-09T20:42:56.413Z,13.38
2024-05-09T20:46:58.256Z,4.78
2024-05-09T20:51:00.279Z,3.90
2024-05-09T20:55:02.431Z,3.37
2024-05-09T20:59:04.335Z,2.97
2024-05-09T21:03:07.226Z,3.90
2024-05-09T21:07:09.451Z,5.75
2024-05-09T21:11:11.308Z,1.70
2024-05-09T21:15:13.296Z,5.50
2024-05-09T21:19:15.129Z,5.93
2024-05-09T21:23:16.833Z,3.65
2024-05-09T21:27:19.274Z,2.58
2024-05-09T21:31:21.567Z,3.90
2024-05-09T21:35:23.442Z,2.67
2024-05-09T21:39:25.204Z,5.67
2024-05-09T21:43:28.865Z,7.28
2024-05-09T21:47:31.001Z,5.45
2024-05-09T21:51:33.147Z,3.10
2024-05-09T21:55:35.043Z,4.43
2024-05-09T21:59:40.408Z,3.95
2024-05-09T22:03:42.260Z,4.38
2024-05-09T22:07:44.119Z,3.37
2024-05-09T22:11:47.438Z,2.65
2024-05-09T22:15:59.185Z,6.22
2024-05-09T22:20:01.641Z,4.80
2024-05-09T22:24:03.771Z,2.83
2024-05-09T22:28:06.216Z,2.83
2024-05-09T22:32:08.532Z,3.60
2024-05-09T22:36:10.445Z,11.82
2024-05-09T22:40:20.697Z,4.63
2024-05-09T22:44:30.391Z,2.42
2024-05-09T22:48:32.559Z,2.67
2024-05-09T22:52:34.552Z,4.85
2024-05-09T22:56:36.691Z,2.43
2024-05-09T23:00:38.962Z,11.82
2024-05-09T23:04:41.306Z,1.85
2024-05-09T23:08:43.132Z,3.15
2024-05-09T23:12:45.085Z,3.25
2024-05-09T23:16:47.081Z,3.13
2024-05-09T23:20:48.966Z,3.58
2024-05-09T23:24:50.729Z,2.67
2024-05-09T23:28:52.664Z,2.92
2024-05-09T23:32:55.015Z,2.83
2024-05-09T23:36:57.219Z,4.70
2024-05-09T23:40:59.306Z,2.80
2024-05-09T23:45:01.246Z,2.40
2024-05-09T23:49:03.342Z,7.03
2024-05-09T23:53:07.249Z,5.35
2024-05-09T23:57:10.320Z,3.47
